createdAt,value
2018-11-05T00:00:19.607Z,95.30
2018-11-05T00:02:50.847Z,95.40
2018-11-05T00:05:20.058Z,95.20
2018-11-05T00:07:48.763Z,95.40
2018-11-05T00:10:17.650Z,95.50
2018-11-05T00:12:46.447Z,95.50
2018-11-05T00:15:15.247Z,95.80
2018-11-05T00:17:44.144Z,95.90
2018-11-05T00:20:12.932Z,95.80
2018-11-05T00:22:42.035Z,95.80
2018-11-05T00:25:12.379Z,95.80
2018-11-05T00:27:41.689Z,96.20
2018-11-05T00:30:12.653Z,95.90
2018-11-05T00:32:41.821Z,95.70
2018-11-05T00:35:10.642Z,95.60
2018-11-05T00:37:39.425Z,96.00
2018-11-05T00:40:10.279Z,95.30
2018-11-05T00:42:39.052Z,95.60
2018-11-05T00:45:08.795Z,95.40
2018-11-05T00:47:37.554Z,95.40
2018-11-05T00:50:08.655Z,95.30
2018-11-05T00:52:37.480Z,95.30
2018-11-05T00:55:06.439Z,95.50
2018-11-05T00:57:35.483Z,95.30
2018-11-05T01:00:06.777Z,95.30
2018-11-05T01:02:35.863Z,95.50
2018-11-05T01:05:06.206Z,95.60
2018-11-05T01:07:35.115Z,95.50
2018-11-05T01:10:04.065Z,95.50
2018-11-05T01:12:32.885Z,95.40
2018-11-05T01:15:01.727Z,95.20
2018-11-05T01:17:30.451Z,95.20
2018-11-05T01:19:59.198Z,95.20
2018-11-05T01:22:27.929Z,95.10
2018-11-05T01:24:56.665Z,95.10
2018-11-05T01:27:25.459Z,95.30
2018-11-05T01:29:54.332Z,95.40
2018-11-05T01:32:23.171Z,95.60
2018-11-05T01:34:51.908Z,95.70
2018-11-05T01:37:20.681Z,95.60
2018-11-05T01:39:49.454Z,95.70
2018-11-05T01:42:18.193Z,95.60
2018-11-05T01:44:46.916Z,95.70
2018-11-05T01:47:16.677Z,95.60
2018-11-05T01:49:45.436Z,95.60
2018-11-05T01:52:14.572Z,95.50
2018-11-05T01:54:43.335Z,95.60
2018-11-05T01:57:12.060Z,95.80
2018-11-05T01:59:40.780Z,95.90
2018-11-05T02:02:09.608Z,95.90
2018-11-05T02:04:38.390Z,96.10
2018-11-05T02:07:08.777Z,96.20
2018-11-05T02:09:38.580Z,96.10
2018-11-05T02:12:07.513Z,96.10
2018-11-05T02:14:36.637Z,96.00
2018-11-05T02:17:05.606Z,95.90
2018-11-05T02:19:34.591Z,96.00
2018-11-05T02:22:03.308Z,96.10
2018-11-05T02:24:32.793Z,96.10
2018-11-05T02:27:01.780Z,96.00
2018-11-05T02:29:30.453Z,96.10
2018-11-05T02:31:59.183Z,96.30
2018-11-05T02:34:27.980Z,96.30
2018-11-05T02:36:56.920Z,96.20
2018-11-05T02:39:25.931Z,96.20
2018-11-05T02:41:54.696Z,96.30
2018-11-05T02:44:23.410Z,96.20
2018-11-05T02:46:52.474Z,96.20
2018-11-05T02:49:21.207Z,96.20
2018-11-05T02:51:49.957Z,96.10
2018-11-05T02:54:18.673Z,96.10
2018-11-05T02:56:47.393Z,96.30
2018-11-05T02:59:16.115Z,96.50
2018-11-05T03:01:44.863Z,96.70
2018-11-05T03:04:13.620Z,96.80
2018-11-05T03:06:42.372Z,96.90
2018-11-05T03:09:12.400Z,97.10
2018-11-05T03:11:41.793Z,97.10
2018-11-05T03:14:10.616Z,97.30
2018-11-05T03:16:39.442Z,97.50
2018-11-05T03:19:08.221Z,97.50
2018-11-05T03:21:37.090Z,97.50
2018-11-05T03:24:06.066Z,97.50
2018-11-05T03:29:10.946Z,97.60
2018-11-05T03:31:40.026Z,97.60
2018-11-05T03:34:09.490Z,97.60
2018-11-05T03:36:38.281Z,97.50
2018-11-05T03:39:08.414Z,97.70
2018-11-05T03:41:37.357Z,97.80
2018-11-05T03:44:06.593Z,97.70
2018-11-05T03:46:35.509Z,97.80
2018-11-05T03:49:04.930Z,97.90
2018-11-05T03:51:40.329Z,97.70
2018-11-05T03:54:09.320Z,97.90
2018-11-05T03:56:38.176Z,97.80
2018-11-05T03:59:06.966Z,97.90
2018-11-05T04:01:35.773Z,98.00
2018-11-05T04:04:04.602Z,97.90
2018-11-05T04:06:33.314Z,98.00
2018-11-05T04:09:02.176Z,98.00
2018-11-05T04:11:30.950Z,98.20
2018-11-05T04:13:59.738Z,98.20
2018-11-05T04:19:05.789Z,98.20
2018-11-05T04:21:49.870Z,98.30
2018-11-05T04:24:18.660Z,98.50
2018-11-05T04:26:47.469Z,98.60
2018-11-05T04:29:16.216Z,98.70
2018-11-05T04:31:45.066Z,98.80
2018-11-05T04:34:14.222Z,98.60
2018-11-05T04:36:43.020Z,98.60
2018-11-05T04:39:14.501Z,98.60
2018-11-05T04:41:43.671Z,98.80
2018-11-05T04:44:12.553Z,98.70
2018-11-05T04:46:41.245Z,99.00
2018-11-05T04:49:10.244Z,98.60
2018-11-05T04:51:39.001Z,98.60
2018-11-05T04:54:07.859Z,98.60
2018-11-05T04:56:36.770Z,98.60
2018-11-05T04:59:06.445Z,98.70
2018-11-05T05:01:35.341Z,98.60
2018-11-05T05:04:04.418Z,98.70
2018-11-05T05:06:33.181Z,98.70
2018-11-05T05:09:01.953Z,98.80
2018-11-05T05:11:30.708Z,98.80
2018-11-05T05:13:59.551Z,98.60
2018-11-05T05:16:28.292Z,98.60
2018-11-05T05:18:57.040Z,98.60
2018-11-05T05:21:25.772Z,98.60
2018-11-05T05:23:54.594Z,98.60
2018-11-05T05:26:23.751Z,98.60
2018-11-05T05:28:52.797Z,98.50
2018-11-05T05:31:21.996Z,98.50
2018-11-05T05:33:50.816Z,98.50
2018-11-05T05:36:19.977Z,98.50
2018-11-05T05:38:48.718Z,98.50
2018-11-05T05:41:17.672Z,98.60
2018-11-05T05:43:46.359Z,98.50
2018-11-05T05:46:15.129Z,98.50
2018-11-05T05:48:44.163Z,98.60
2018-11-05T05:51:13.029Z,98.60
2018-11-05T05:53:41.811Z,98.50
2018-11-05T05:56:10.629Z,98.50
2018-11-05T05:58:39.464Z,98.60
2018-11-05T06:01:08.189Z,98.60
2018-11-05T06:03:36.926Z,98.60
2018-11-05T06:06:06.561Z,98.50
2018-11-05T06:08:35.233Z,98.40
2018-11-05T06:11:03.961Z,98.30
2018-11-05T06:13:32.758Z,98.40
2018-11-05T06:16:01.753Z,98.30
2018-11-05T06:18:30.286Z,98.40
2018-11-05T06:20:59.165Z,98.40
2018-11-05T06:23:27.898Z,98.40
2018-11-05T06:25:56.634Z,98.50
2018-11-05T06:28:25.416Z,98.40
2018-11-05T06:30:54.116Z,98.50
2018-11-05T06:33:22.949Z,98.40
2018-11-05T06:35:51.696Z,98.40
2018-11-05T06:38:20.499Z,98.40
2018-11-05T06:40:49.284Z,98.30
2018-11-05T06:43:18.030Z,98.30
2018-11-05T06:45:46.736Z,98.20
2018-11-05T06:48:15.456Z,98.40
2018-11-05T06:50:44.197Z,98.20
2018-11-05T06:53:12.941Z,98.60
2018-11-05T06:55:41.698Z,98.10
2018-11-05T06:58:10.807Z,98.20
2018-11-05T07:00:39.704Z,98.20
2018-11-05T07:03:08.513Z,98.10
2018-11-05T07:05:37.580Z,98.20
2018-11-05T07:08:06.236Z,98.10
2018-11-05T07:10:35.867Z,98.10
2018-11-05T07:13:04.588Z,98.20
2018-11-05T07:15:33.300Z,98.70
2018-11-05T07:18:02.036Z,98.30
2018-11-05T07:20:30.744Z,98.40
2018-11-05T07:22:59.516Z,98.40
2018-11-05T07:25:28.212Z,98.30
2018-11-05T07:27:56.946Z,98.20
2018-11-05T07:30:25.675Z,98.10
2018-11-05T07:32:55.517Z,98.10
2018-11-05T07:35:24.278Z,98.20
2018-11-05T07:37:53.037Z,98.10
2018-11-05T07:40:21.788Z,98.20
2018-11-05T07:42:50.597Z,98.20
2018-11-05T07:45:20.713Z,98.30
2018-11-05T07:47:49.584Z,98.10
2018-11-05T07:50:19.424Z,98.20
2018-11-05T07:52:48.257Z,98.20
2018-11-05T07:55:18.438Z,98.00
2018-11-05T07:57:48.119Z,98.10
2018-11-05T08:00:22.301Z,98.00
2018-11-05T08:02:52.659Z,98.10
2018-11-05T08:05:22.859Z,98.10
2018-11-05T08:07:51.807Z,98.10
2018-11-05T08:10:20.648Z,98.00
2018-11-05T08:12:49.460Z,97.90
2018-11-05T08:15:23.472Z,97.80
2018-11-05T08:17:53.552Z,97.70
2018-11-05T08:20:22.276Z,97.80
2018-11-05T08:22:51.128Z,98.00
2018-11-05T08:25:19.857Z,97.90
2018-11-05T08:27:48.689Z,97.90
2018-11-05T08:30:21.546Z,97.90
2018-11-05T08:32:50.349Z,97.80
2018-11-05T08:35:19.037Z,97.80
2018-11-05T08:37:48.068Z,97.80
2018-11-05T08:40:19.276Z,97.70
2018-11-05T08:42:48.830Z,97.50
2018-11-05T08:45:18.925Z,97.50
2018-11-05T08:47:47.686Z,97.50
2018-11-05T08:50:17.841Z,97.20
2018-11-05T08:52:46.600Z,97.30
2018-11-05T08:55:17.033Z,97.20
2018-11-05T08:57:45.875Z,97.00
2018-11-05T09:00:22.580Z,97.40
2018-11-05T09:02:51.579Z,96.90
2018-11-05T09:05:20.485Z,96.80
2018-11-05T09:07:49.983Z,96.70
2018-11-05T09:10:18.971Z,96.60
2018-11-05T09:12:47.548Z,96.70
2018-11-05T09:15:17.656Z,96.50
2018-11-05T09:17:47.598Z,96.40
2018-11-05T09:20:17.277Z,96.40
2018-11-05T09:22:46.375Z,96.00
2018-11-05T09:25:16.608Z,95.80
2018-11-05T09:27:45.349Z,95.60
2018-11-05T09:30:16.487Z,95.50
2018-11-05T09:32:45.934Z,95.50
2018-11-05T09:35:14.737Z,95.70
2018-11-05T09:37:43.448Z,95.60
2018-11-05T09:40:17.016Z,95.60
2018-11-05T09:42:46.534Z,95.70
2018-11-05T09:45:17.549Z,95.60
2018-11-05T09:47:47.156Z,95.70
2018-11-05T09:50:16.341Z,95.50
2018-11-05T09:52:45.081Z,95.50
2018-11-05T09:55:14.284Z,95.50
2018-11-05T09:57:43.110Z,95.50
2018-11-05T10:00:15.887Z,95.60
2018-11-05T10:02:50.287Z,95.40
2018-11-05T10:05:18.997Z,95.50
2018-11-05T10:07:47.922Z,95.50
2018-11-05T10:10:17.470Z,95.30
2018-11-05T10:12:46.184Z,95.60
2018-11-05T10:15:17.131Z,95.10
2018-11-05T10:17:45.882Z,95.00
2018-11-05T10:20:17.189Z,94.90
2018-11-05T10:22:50.172Z,94.50
2018-11-05T10:25:19.696Z,94.50
2018-11-05T10:27:49.122Z,94.50
2018-11-05T10:30:25.361Z,94.50
2018-11-05T10:32:54.112Z,94.40
2018-11-05T10:35:28.243Z,94.60
2018-11-05T10:37:57.164Z,94.50
2018-11-05T10:40:25.975Z,94.50
2018-11-05T10:42:54.661Z,94.90
2018-11-05T10:45:23.987Z,94.60
2018-11-05T10:47:54.859Z,94.90
2018-11-05T10:50:30.184Z,94.90
2018-11-05T10:52:59.045Z,94.50
2018-11-05T10:55:27.860Z,94.70
2018-11-05T10:57:57.050Z,94.40
2018-11-05T11:00:37.017Z,94.40
2018-11-05T11:03:13.343Z,94.40
2018-11-05T11:05:42.141Z,94.10
2018-11-05T11:08:10.877Z,94.40
2018-11-05T11:10:45.921Z,94.10
2018-11-05T11:13:14.720Z,93.70
2018-11-05T11:15:43.513Z,93.60
2018-11-05T11:18:12.445Z,93.30
2018-11-05T11:20:41.228Z,93.30
2018-11-05T11:23:10.024Z,93.20
2018-11-05T11:25:39.997Z,93.00
2018-11-05T11:28:08.870Z,93.00
2018-11-05T11:30:37.557Z,93.00
2018-11-05T11:33:06.297Z,93.20
2018-11-05T11:35:35.062Z,93.10
2018-11-05T11:38:04.650Z,92.90
2018-11-05T11:40:34.079Z,93.10
2018-11-05T11:43:05.997Z,93.20
2018-11-05T11:48:27.495Z,93.20
2018-11-05T11:50:56.824Z,93.00
2018-11-05T11:53:25.665Z,93.10
2018-11-05T11:55:54.357Z,92.80
2018-11-05T11:58:23.543Z,92.60
2018-11-05T12:00:52.830Z,92.40
2018-11-05T12:03:21.834Z,92.50
2018-11-05T12:05:50.548Z,92.30
2018-11-05T12:08:19.277Z,92.40
2018-11-05T12:10:49.411Z,92.30
2018-11-05T12:13:18.195Z,92.50
2018-11-05T12:15:47.518Z,92.20
2018-11-05T12:18:16.282Z,92.20
2018-11-05T12:20:45.924Z,91.90
2018-11-05T12:23:14.793Z,91.80
2018-11-05T12:25:47.392Z,91.90
2018-11-05T12:28:18.445Z,91.70
2018-11-05T12:30:47.390Z,91.80
2018-11-05T12:33:18.319Z,91.90
2018-11-05T12:35:54.633Z,91.80
2018-11-05T12:38:23.360Z,92.00
2018-11-05T12:40:52.479Z,92.20
2018-11-05T12:43:21.185Z,92.10
2018-11-05T12:45:50.054Z,92.10
2018-11-05T12:48:18.797Z,92.00
2018-11-05T12:50:47.693Z,91.80
2018-11-05T12:53:16.381Z,91.70
2018-11-05T12:55:45.834Z,91.60
2018-11-05T12:58:22.333Z,91.40
2018-11-05T13:00:52.094Z,91.40
2018-11-05T13:03:24.994Z,91.60
2018-11-05T13:05:53.817Z,91.60
2018-11-05T13:08:22.554Z,91.60
2018-11-05T13:10:51.302Z,91.60
2018-11-05T13:13:20.029Z,91.60
2018-11-05T13:15:48.753Z,91.50
2018-11-05T13:18:17.503Z,91.30
2018-11-05T13:20:46.364Z,91.40
2018-11-05T13:23:46.690Z,91.80
2018-11-05T13:26:16.291Z,91.90
2018-11-05T13:28:45.204Z,91.80
2018-11-05T13:31:13.972Z,91.60
2018-11-05T13:33:42.920Z,91.60
2018-11-05T13:36:11.694Z,91.70
2018-11-05T13:38:40.646Z,91.80
2018-11-05T13:41:09.526Z,91.90
2018-11-05T13:43:38.396Z,92.00
2018-11-05T13:46:07.400Z,92.20
2018-11-05T13:48:36.410Z,92.00
2018-11-05T13:51:05.701Z,92.20
2018-11-05T13:53:34.497Z,92.40
2018-11-05T13:56:03.254Z,92.50
2018-11-05T13:58:32.263Z,92.60
2018-11-05T14:01:01.717Z,93.00
2018-11-05T14:03:30.460Z,93.00
2018-11-05T14:05:59.326Z,93.30
2018-11-05T14:08:28.101Z,93.00
2018-11-05T14:10:56.981Z,93.00
2018-11-05T14:13:25.776Z,93.20
2018-11-05T14:15:54.565Z,93.30
2018-11-05T14:18:23.670Z,93.30
2018-11-05T14:20:52.614Z,93.30
2018-11-05T14:23:21.548Z,93.30
2018-11-05T14:25:50.535Z,93.90
2018-11-05T14:28:19.529Z,93.30
2018-11-05T14:30:48.063Z,93.40
2018-11-05T14:33:16.788Z,93.60
2018-11-05T14:35:45.534Z,93.40
2018-11-05T14:38:14.242Z,93.40
2018-11-05T14:40:42.967Z,93.40
2018-11-05T14:43:11.893Z,93.40
2018-11-05T14:45:40.561Z,93.40
2018-11-05T14:48:09.297Z,93.40
2018-11-05T14:50:38.121Z,93.40
2018-11-05T14:53:06.794Z,93.30
2018-11-05T14:55:35.614Z,93.20
2018-11-05T14:58:04.842Z,93.30
2018-11-05T15:00:33.575Z,93.20
2018-11-05T15:03:02.359Z,93.40
2018-11-05T15:05:31.401Z,93.40
2018-11-05T15:08:00.231Z,93.50
2018-11-05T15:10:28.945Z,93.50
2018-11-05T15:12:57.776Z,93.60
2018-11-05T15:15:26.542Z,93.70
2018-11-05T15:17:55.347Z,93.70
2018-11-05T15:20:24.379Z,93.70
2018-11-05T15:22:53.191Z,93.90
2018-11-05T15:25:22.551Z,93.90
2018-11-05T15:27:57.023Z,94.10
2018-11-05T15:33:02.556Z,94.80
2018-11-05T15:35:32.728Z,94.80
2018-11-05T15:38:01.518Z,94.70
2018-11-05T15:40:30.344Z,95.10
2018-11-05T15:43:01.491Z,94.90
2018-11-05T15:45:36.235Z,94.90
2018-11-05T15:48:07.069Z,94.80
2018-11-05T15:50:36.069Z,94.90
2018-11-05T15:53:09.751Z,94.90
2018-11-05T15:55:38.624Z,94.90
2018-11-05T15:58:08.776Z,94.90
2018-11-05T16:00:39.108Z,94.90
2018-11-05T16:03:10.117Z,94.90
2018-11-05T16:05:44.417Z,95.00
2018-11-05T16:08:15.018Z,95.20
2018-11-05T16:13:21.386Z,95.30
2018-11-05T16:18:35.513Z,95.30
2018-11-05T16:21:04.496Z,95.30
2018-11-05T16:23:33.688Z,95.20
2018-11-05T16:26:02.502Z,95.30
2018-11-05T16:28:31.293Z,95.30
2018-11-05T16:31:03.972Z,95.20
2018-11-05T16:33:32.729Z,95.40
2018-11-05T16:36:03.575Z,95.30
2018-11-05T16:38:32.688Z,95.30
2018-11-05T16:43:34.813Z,95.50
2018-11-05T16:46:06.341Z,95.50
2018-11-05T16:48:35.075Z,95.40
2018-11-05T16:51:04.062Z,95.50
2018-11-05T16:53:32.855Z,95.40
2018-11-05T16:56:01.799Z,95.40
2018-11-05T16:58:31.602Z,95.40
2018-11-05T17:01:01.484Z,95.30
2018-11-05T17:03:34.046Z,95.30
2018-11-05T17:06:02.901Z,95.30
2018-11-05T17:08:31.596Z,95.20
2018-11-05T17:11:01.037Z,95.50
2018-11-05T17:13:30.194Z,95.60
2018-11-05T17:15:58.902Z,95.40
2018-11-05T17:18:27.675Z,95.40
2018-11-05T17:20:56.415Z,95.10
2018-11-05T17:23:25.213Z,95.40
2018-11-05T17:25:53.941Z,95.30
2018-11-05T17:28:22.713Z,95.30
2018-11-05T17:30:52.806Z,95.60
2018-11-05T17:33:21.793Z,95.90
2018-11-05T17:35:51.713Z,96.10
2018-11-05T17:38:22.746Z,96.20
2018-11-05T17:40:51.580Z,96.00
2018-11-05T17:43:22.254Z,96.10
2018-11-05T17:45:52.273Z,96.10
2018-11-05T17:48:21.090Z,96.40
2018-11-05T17:50:49.963Z,96.40
2018-11-05T17:53:18.780Z,96.50
2018-11-05T17:55:48.002Z,96.50
2018-11-05T17:58:16.941Z,96.60
2018-11-05T18:00:46.107Z,96.60
2018-11-05T18:03:15.096Z,96.70
2018-11-05T18:05:48.737Z,96.60
2018-11-05T18:08:19.113Z,96.70
2018-11-05T18:10:49.457Z,96.70
2018-11-05T18:13:18.404Z,96.60
2018-11-05T18:15:47.142Z,96.70
2018-11-05T18:18:15.981Z,96.60
2018-11-05T18:20:44.838Z,96.50
2018-11-05T18:23:13.715Z,96.40
2018-11-05T18:25:42.566Z,96.40
2018-11-05T18:28:11.326Z,96.40
2018-11-05T18:30:40.503Z,96.40
2018-11-05T18:33:09.295Z,96.60
2018-11-05T18:35:38.033Z,96.60
2018-11-05T18:38:07.092Z,96.70
2018-11-05T18:40:35.879Z,96.70
2018-11-05T18:43:04.819Z,96.50
2018-11-05T18:45:34.266Z,96.90
2018-11-05T18:48:03.019Z,96.80
2018-11-05T18:50:31.894Z,96.70
2018-11-05T18:53:00.920Z,96.70
2018-11-05T18:55:29.830Z,96.40
2018-11-05T18:57:58.631Z,96.60
2018-11-05T19:00:28.018Z,96.70
2018-11-05T19:02:57.800Z,96.70
2018-11-05T19:05:27.753Z,96.60
2018-11-05T19:07:57.056Z,96.50
2018-11-05T19:10:25.890Z,96.50
2018-11-05T19:12:54.867Z,96.40
2018-11-05T19:15:23.706Z,96.60
2018-11-05T19:17:53.016Z,96.40
2018-11-05T19:20:23.192Z,96.50
2018-11-05T19:22:52.231Z,97.00
2018-11-05T19:25:21.561Z,96.80
2018-11-05T19:27:50.280Z,96.70
2018-11-05T19:30:25.856Z,96.70
2018-11-05T19:32:54.610Z,96.80
2018-11-05T19:38:02.342Z,96.70
2018-11-05T19:40:31.166Z,97.00
2018-11-05T19:42:59.941Z,96.70
2018-11-05T19:45:28.641Z,96.70
2018-11-05T19:47:57.362Z,96.80
2018-11-05T19:50:26.137Z,96.70
2018-11-05T19:52:55.054Z,96.70
2018-11-05T19:55:23.826Z,96.70
2018-11-05T19:57:53.264Z,96.60
2018-11-05T20:00:23.645Z,96.70
2018-11-05T20:02:52.662Z,96.50
2018-11-05T20:05:21.768Z,96.40
2018-11-05T20:07:52.813Z,96.50
2018-11-05T20:10:21.571Z,96.50
2018-11-05T20:12:52.414Z,96.10
2018-11-05T20:15:21.291Z,96.20
2018-11-05T20:17:51.188Z,96.30
2018-11-05T20:20:23.569Z,95.90
2018-11-05T20:22:52.456Z,95.80
2018-11-05T20:25:21.354Z,95.80
2018-11-05T20:27:50.128Z,95.70
2018-11-05T20:30:21.024Z,95.60
2018-11-05T20:32:51.400Z,95.50
2018-11-05T20:35:19.764Z,95.40
2018-11-05T20:37:49.376Z,95.60
2018-11-05T20:40:20.047Z,95.50
2018-11-05T20:42:49.997Z,95.30
2018-11-05T20:45:19.630Z,95.60
2018-11-05T20:47:49.368Z,95.20
2018-11-05T20:50:18.892Z,95.20
2018-11-05T20:52:48.013Z,95.20
2018-11-05T20:55:17.656Z,95.00
2018-11-05T20:57:46.502Z,94.90
2018-11-05T21:00:16.747Z,94.80
2018-11-05T21:02:45.503Z,94.80
2018-11-05T21:05:14.390Z,94.70
2018-11-05T21:07:43.616Z,94.70
2018-11-05T21:10:13.491Z,94.60
2018-11-05T21:12:42.953Z,94.50
2018-11-05T21:15:22.182Z,94.50
2018-11-05T21:17:52.591Z,94.50
2018-11-05T21:20:21.368Z,94.50
2018-11-05T21:22:50.912Z,94.50
2018-11-05T21:25:19.425Z,94.40
2018-11-05T21:27:48.200Z,94.40
2018-11-05T21:30:18.479Z,94.30
2018-11-05T21:32:47.175Z,94.30
2018-11-05T21:35:17.920Z,94.30
2018-11-05T21:37:46.672Z,94.20
2018-11-05T21:40:17.949Z,94.20
2018-11-05T21:42:47.505Z,94.20
2018-11-05T21:45:16.725Z,93.90
2018-11-05T21:47:46.276Z,93.90
2018-11-05T21:50:17.421Z,93.90
2018-11-05T21:52:47.413Z,93.90
2018-11-05T21:55:16.170Z,93.90
2018-11-05T21:57:47.568Z,93.80
2018-11-05T22:00:18.986Z,93.70
2018-11-05T22:02:53.266Z,93.60
2018-11-05T22:05:22.061Z,93.60
2018-11-05T22:07:50.831Z,93.60
2018-11-05T22:10:19.557Z,93.50
2018-11-05T22:12:48.783Z,93.60
2018-11-05T22:15:17.867Z,93.70
2018-11-05T22:17:46.677Z,93.70
2018-11-05T22:20:15.678Z,93.70
2018-11-05T22:22:44.513Z,93.70
2018-11-05T22:25:13.250Z,93.70
2018-11-05T22:27:42.028Z,93.70
2018-11-05T22:30:11.420Z,93.60
2018-11-05T22:32:40.209Z,93.50
2018-11-05T22:35:08.960Z,93.60
2018-11-05T22:37:37.832Z,93.50
2018-11-05T22:40:09.347Z,93.50
2018-11-05T22:42:38.213Z,93.60
2018-11-05T22:45:07.683Z,93.70
2018-11-05T22:50:11.547Z,93.50
2018-11-05T22:52:41.063Z,93.40
2018-11-05T22:55:09.987Z,93.30
2018-11-05T22:57:38.881Z,93.20
2018-11-05T23:00:18.901Z,93.20
2018-11-05T23:02:53.093Z,93.20
2018-11-05T23:05:21.998Z,93.20
2018-11-05T23:07:51.731Z,93.20
2018-11-05T23:10:20.748Z,93.20
2018-11-05T23:12:49.571Z,93.10
2018-11-05T23:15:19.058Z,93.10
2018-11-05T23:17:47.893Z,93.10
2018-11-05T23:20:16.636Z,93.20
2018-11-05T23:22:51.715Z,93.00
2018-11-05T23:25:20.453Z,93.00
2018-11-05T23:27:49.186Z,93.10
2018-11-05T23:30:17.895Z,93.00
2018-11-05T23:32:46.725Z,93.00
2018-11-05T23:35:15.515Z,93.00
2018-11-05T23:37:44.305Z,92.90
2018-11-05T23:40:13.251Z,92.90
2018-11-05T23:42:42.154Z,92.90
2018-11-05T23:45:13.117Z,92.90
2018-11-05T23:47:42.616Z,93.30
2018-11-05T23:50:11.920Z,92.90
2018-11-05T23:52:40.786Z,92.80
2018-11-05T23:55:10.268Z,92.70
2018-11-05T23:57:39.034Z,92.60
